Time;durP1;ratioP1;P1;durP2;ratioP2;P2;SDS_P1;SDS_P2;PMS_P1;PMS_P2;Temp;Humidity;BMP_temperature;BMP_pressure;BME280_temperature;BME280_humidity;BME280_pressure;Samples;Min_cycle;Max_cycle;Signal;HPM_P1;HPM_P2
2022/07/17 00:01:53;;;;;;;4.38;1.70;;;22.00;55.00;;;;;;4841405;29;20091;-77
2022/07/17 00:04:19;;;;;;;4.55;1.70;;;22.00;55.10;;;;;;4840361;29;20044;-77
2022/07/17 00:06:45;;;;;;;6.03;1.73;;;22.00;55.20;;;;;;4839999;29;20034;-76
2022/07/17 00:09:10;;;;;;;7.32;1.70;;;22.00;55.20;;;;;;4841147;29;20432;-76
2022/07/17 00:11:36;;;;;;;6.32;2.00;;;22.00;55.20;;;;;;4825131;29;20181;-77
2022/07/17 00:14:02;;;;;;;5.50;1.80;;;22.00;55.20;;;;;;4841421;29;20030;-77
2022/07/17 00:16:28;;;;;;;4.45;1.73;;;22.00;55.20;;;;;;4839929;29;20034;-77
2022/07/17 00:18:54;;;;;;;4.03;1.75;;;22.00;55.30;;;;;;4841297;29;20448;-76
2022/07/17 00:21:20;;;;;;;5.00;1.63;;;22.00;55.30;;;;;;4841078;29;20034;-77
2022/07/17 00:23:45;;;;;;;4.90;1.45;;;22.00;55.30;;;;;;4840274;29;20038;-77
2022/07/17 00:26:11;;;;;;;5.57;1.85;;;22.00;55.30;;;;;;4842192;29;20026;-77
2022/07/17 00:28:37;;;;;;;5.18;1.70;;;22.00;55.40;;;;;;4845023;29;20038;-77
2022/07/17 00:31:03;;;;;;;5.95;1.55;;;22.00;55.50;;;;;;4844679;29;20034;-77
2022/07/17 00:33:29;;;;;;;3.72;1.70;;;22.00;55.50;;;;;;4843804;29;20034;-76
2022/07/17 00:35:55;;;;;;;5.40;1.70;;;22.00;55.50;;;;;;4843440;29;20030;-77
2022/07/17 00:38:20;;;;;;;6.85;1.83;;;22.00;55.50;;;;;;4844814;29;20034;-76
2022/07/17 00:40:46;;;;;;;6.43;1.92;;;22.00;55.50;;;;;;4844815;29;20053;-76
2022/07/17 00:43:12;;;;;;;3.83;1.60;;;22.00;55.50;;;;;;4843539;29;20105;-77
2022/07/17 00:45:38;;;;;;;3.60;1.52;;;22.00;55.50;;;;;;4844484;29;20077;-77
2022/07/17 00:48:09;;;;;;;4.75;1.90;;;22.00;55.50;;;;;;4844700;29;20041;-76
2022/07/17 00:50:40;;;;;;;5.88;1.67;;;22.00;55.60;;;;;;4843320;29;20082;-77
2022/07/17 00:53:07;;;;;;;4.72;1.52;;;22.00;55.60;;;;;;4844552;29;20514;-77
2022/07/17 00:55:34;;;;;;;4.68;1.60;;;22.00;55.60;;;;;;4843240;29;20029;-77
2022/07/17 00:58:02;;;;;;;4.20;1.70;;;22.00;55.60;;;;;;4843338;29;20061;-77
2022/07/17 01:00:28;;;;;;;7.18;2.35;;;22.00;55.60;;;;;;4844395;29;20034;-77
2022/07/17 01:02:55;;;;;;;5.38;1.73;;;22.00;55.60;;;;;;4844396;29;20034;-77
2022/07/17 01:05:22;;;;;;;4.32;1.30;;;22.00;55.60;;;;;;4844172;29;20407;-76
2022/07/17 01:07:49;;;;;;;4.38;1.55;;;22.00;55.60;;;;;;4844333;29;20030;-77
2022/07/17 01:10:16;;;;;;;5.85;1.85;;;22.00;55.60;;;;;;4844183;29;20059;-77
2022/07/17 01:12:43;;;;;;;4.28;1.65;;;22.00;55.60;;;;;;4844267;29;20109;-77
2022/07/17 01:15:10;;;;;;;4.50;1.63;;;22.00;55.60;;;;;;4844008;29;20108;-77
2022/07/17 01:17:36;;;;;;;3.67;1.60;;;22.00;55.60;;;;;;4843203;29;20086;-77
2022/07/17 01:20:05;;;;;;;6.85;1.70;;;22.00;55.60;;;;;;4844063;29;20038;-76
2022/07/17 01:22:30;;;;;;;7.07;1.75;;;22.00;55.60;;;;;;4842836;29;20499;-76
2022/07/17 01:24:56;;;;;;;6.40;1.55;;;22.00;55.70;;;;;;4842900;29;20121;-77
2022/07/17 01:27:22;;;;;;;4.07;1.52;;;22.00;55.70;;;;;;4827389;29;20045;-77
2022/07/17 01:29:48;;;;;;;3.95;1.85;;;22.00;55.70;;;;;;4842525;29;20510;-77
2022/07/17 01:32:14;;;;;;;4.80;1.35;;;22.00;55.80;;;;;;4843797;29;20488;-76
2022/07/17 01:34:39;;;;;;;3.20;1.30;;;22.00;55.70;;;;;;4842985;29;20033;-76
2022/07/17 01:37:05;;;;;;;3.15;1.70;;;22.00;55.80;;;;;;4842949;29;20178;-77
2022/07/17 01:42:15;;;;;;;4.57;1.60;;;22.00;55.80;;;;;;4843754;29;20037;-77
2022/07/17 01:44:41;;;;;;;5.10;1.80;;;22.00;55.80;;;;;;4843684;29;20034;-77
2022/07/17 01:47:07;;;;;;;6.13;1.55;;;22.00;55.90;;;;;;4843367;29;20495;-77
2022/07/17 01:49:32;;;;;;;2.60;1.20;;;22.00;55.80;;;;;;4842323;29;20041;-77
2022/07/17 01:51:59;;;;;;;4.07;1.63;;;22.00;55.90;;;;;;4843543;29;20041;-77
2022/07/17 01:54:29;;;;;;;2.90;1.20;;;22.00;55.90;;;;;;4843544;29;20044;-77
2022/07/17 01:56:55;;;;;;;4.20;1.42;;;22.00;55.90;;;;;;4843261;29;20030;-77
2022/07/17 01:59:21;;;;;;;3.33;1.40;;;21.90;55.90;;;;;;4842320;29;20454;-77
2022/07/17 02:01:47;;;;;;;6.63;1.73;;;21.90;55.90;;;;;;4843324;29;20068;-77
2022/07/17 02:04:13;;;;;;;8.32;1.80;;;21.90;55.90;;;;;;4843348;29;20112;-76
2022/07/17 02:06:39;;;;;;;5.38;1.55;;;21.90;55.90;;;;;;4842916;29;20090;-77
2022/07/17 02:09:05;;;;;;;3.38;1.30;;;21.90;55.90;;;;;;4843171;29;20030;-77
2022/07/17 02:11:30;;;;;;;4.55;1.75;;;21.90;56.00;;;;;;4843114;29;20083;-77
2022/07/17 02:13:56;;;;;;;5.63;1.45;;;21.90;55.90;;;;;;4843094;29;20048;-77
2022/07/17 02:16:22;;;;;;;5.20;1.67;;;22.00;56.10;;;;;;4841654;29;20121;-77
2022/07/17 02:18:48;;;;;;;2.85;1.27;;;21.90;56.00;;;;;;4843212;29;20033;-77
2022/07/17 02:21:13;;;;;;;3.03;1.40;;;21.90;56.00;;;;;;4841881;29;20034;-77
2022/07/17 02:23:39;;;;;;;3.05;1.45;;;21.90;56.00;;;;;;4843052;29;20522;-77
2022/07/17 02:26:05;;;;;;;3.90;1.50;;;21.90;56.00;;;;;;4841440;29;20034;-77
2022/07/17 02:28:31;;;;;;;4.82;1.23;;;21.90;56.00;;;;;;4842889;29;20042;-77
2022/07/17 02:30:57;;;;;;;4.65;1.40;;;21.90;56.00;;;;;;4842777;29;20033;-76
2022/07/17 02:33:22;;;;;;;4.13;1.48;;;21.90;56.00;;;;;;4857053;29;20042;-77
2022/07/17 02:35:48;;;;;;;3.92;1.40;;;21.90;56.10;;;;;;4842495;29;20511;-77
2022/07/17 02:38:14;;;;;;;3.53;1.50;;;21.90;56.00;;;;;;4841720;29;20090;-77
2022/07/17 02:40:41;;;;;;;3.53;1.42;;;21.90;56.10;;;;;;4841495;29;20038;-77
2022/07/17 02:43:07;;;;;;;3.28;1.58;;;21.90;56.00;;;;;;4842750;29;20081;-77
2022/07/17 02:45:33;;;;;;;4.10;1.67;;;21.90;56.00;;;;;;4842328;29;20038;-77
2022/07/17 02:47:59;;;;;;;4.30;1.48;;;21.90;56.10;;;;;;4842574;29;20036;-77
2022/07/17 02:50:25;;;;;;;4.65;1.63;;;21.90;56.00;;;;;;4840955;29;20121;-77
2022/07/17 02:52:51;;;;;;;5.18;1.42;;;21.90;56.00;;;;;;4842568;29;20078;-77
2022/07/17 02:55:17;;;;;;;4.03;1.65;;;21.90;56.00;;;;;;4840912;29;20042;-77
2022/07/17 02:57:46;;;;;;;2.78;1.33;;;21.90;56.00;;;;;;4841369;29;20086;-77
2022/07/17 03:00:15;;;;;;;3.45;1.35;;;21.90;56.00;;;;;;4842429;29;20406;-77
2022/07/17 03:02:43;;;;;;;3.17;1.40;;;21.90;56.00;;;;;;4842467;29;20034;-77
2022/07/17 03:05:09;;;;;;;3.47;1.30;;;21.90;56.00;;;;;;4841958;29;20497;-77
2022/07/17 03:07:35;;;;;;;2.65;1.10;;;21.90;56.00;;;;;;4841108;29;20391;-77
2022/07/17 03:10:01;;;;;;;4.45;1.40;;;21.90;56.00;;;;;;4841987;29;20030;-77
2022/07/17 03:12:27;;;;;;;4.15;1.48;;;22.00;56.00;;;;;;4842120;29;20026;-77
2022/07/17 03:14:53;;;;;;;3.58;1.55;;;22.00;56.00;;;;;;4856239;29;20049;-77
2022/07/17 03:17:19;;;;;;;5.22;1.50;;;21.90;56.00;;;;;;4841783;29;20057;-77
2022/07/17 03:19:44;;;;;;;3.38;1.33;;;21.90;56.00;;;;;;4841987;29;20122;-77
2022/07/17 03:22:10;;;;;;;4.35;1.63;;;21.90;56.00;;;;;;4841057;29;20045;-77
2022/07/17 03:24:36;;;;;;;6.18;1.50;;;21.90;56.00;;;;;;4841870;29;20041;-77
2022/07/17 03:27:02;;;;;;;5.97;1.40;;;21.90;56.10;;;;;;4840508;29;20030;-77
2022/07/17 03:29:28;;;;;;;3.50;1.55;;;21.90;56.10;;;;;;4855922;29;20038;-77
2022/07/17 03:31:53;;;;;;;4.15;1.33;;;21.90;56.10;;;;;;4841747;29;20030;-77
2022/07/17 03:34:19;;;;;;;3.55;1.33;;;21.90;56.10;;;;;;4841732;29;20117;-77
2022/07/17 03:36:46;;;;;;;4.63;1.80;;;21.90;56.10;;;;;;4841469;29;20037;-77
2022/07/17 03:39:12;;;;;;;2.97;1.42;;;21.90;56.20;;;;;;4841763;29;20033;-77
2022/07/17 03:41:38;;;;;;;3.75;1.27;;;21.90;56.20;;;;;;4841692;29;20086;-76
2022/07/17 03:44:04;;;;;;;3.55;1.40;;;21.90;56.20;;;;;;4840375;29;20429;-76
2022/07/17 03:46:30;;;;;;;4.82;1.50;;;21.90;56.20;;;;;;4841550;29;20034;-77
2022/07/17 03:48:56;;;;;;;4.05;1.70;;;21.90;56.20;;;;;;4841614;29;20078;-77
2022/07/17 03:51:21;;;;;;;4.68;1.50;;;21.90;56.20;;;;;;4840117;29;20070;-77
2022/07/17 03:53:47;;;;;;;2.88;1.35;;;21.90;56.30;;;;;;4841452;29;20510;-77
2022/07/17 03:56:13;;;;;;;5.40;1.70;;;21.90;56.20;;;;;;4840001;29;20022;-77
2022/07/17 03:58:39;;;;;;;3.33;1.42;;;21.90;56.20;;;;;;4841468;29;20037;-77
2022/07/17 04:01:05;;;;;;;4.93;1.40;;;21.90;56.20;;;;;;4839720;29;20030;-77
2022/07/17 04:03:31;;;;;;;4.05;1.60;;;21.90;56.90;;;;;;4841355;29;20502;-77
2022/07/17 04:05:57;;;;;;;2.17;1.20;;;21.90;56.30;;;;;;4841053;29;20094;-77
2022/07/17 04:08:23;;;;;;;5.50;1.60;;;21.90;56.30;;;;;;4841206;29;20034;-77
2022/07/17 04:10:48;;;;;;;2.85;1.45;;;21.90;56.30;;;;;;4841160;29;20038;-77
2022/07/17 04:13:14;;;;;;;3.22;1.42;;;21.90;56.30;;;;;;4841285;29;20136;-77
2022/07/17 04:15:49;;;;;;;3.88;1.40;;;21.90;56.40;;;;;;4824825;29;20169;-77
2022/07/17 04:18:15;;;;;;;3.80;1.40;;;21.90;56.30;;;;;;4840024;29;20033;-77
2022/07/17 04:20:41;;;;;;;3.83;1.50;;;21.90;56.30;;;;;;4839991;29;20038;-77
2022/07/17 04:23:07;;;;;;;3.03;1.42;;;21.90;56.30;;;;;;4840110;29;20069;-77
2022/07/17 04:25:33;;;;;;;4.65;1.65;;;21.90;56.30;;;;;;4840866;29;20075;-77
2022/07/17 04:27:59;;;;;;;2.88;1.55;;;21.90;56.30;;;;;;4840203;29;20061;-77
2022/07/17 04:30:24;;;;;;;4.28;1.48;;;21.90;56.30;;;;;;4853555;24;20046;-77
2022/07/17 04:32:50;;;;;;;4.38;1.65;;;21.90;56.40;;;;;;4839799;29;20042;-76
2022/07/17 04:35:16;;;;;;;5.25;1.60;;;21.90;56.40;;;;;;4854936;29;20033;-76
2022/07/17 04:37:42;;;;;;;3.20;1.60;;;21.90;56.40;;;;;;4841039;29;20098;-76
2022/07/17 04:40:09;;;;;;;4.88;1.50;;;21.80;56.90;;;;;;4842283;29;20132;-76
2022/07/17 04:42:34;;;;;;;3.30;1.40;;;21.90;56.40;;;;;;4858246;29;20056;-76
2022/07/17 04:45:00;;;;;;;4.03;1.40;;;21.90;56.40;;;;;;4859427;29;20037;-76
2022/07/17 04:47:26;;;;;;;2.85;1.70;;;21.90;56.40;;;;;;4859151;29;20037;-76
2022/07/17 04:49:52;;;;;;;3.72;1.65;;;21.90;56.40;;;;;;4858200;29;20132;-76
2022/07/17 04:52:18;;;;;;;4.18;1.63;;;21.90;56.40;;;;;;4859412;29;20036;-76
2022/07/17 04:54:43;;;;;;;2.67;1.63;;;21.80;56.40;;;;;;4859358;29;20108;-76
2022/07/17 04:57:09;;;;;;;2.67;1.40;;;21.90;56.40;;;;;;4859064;29;20029;-76
2022/07/17 04:59:37;;;;;;;3.50;1.48;;;21.90;56.40;;;;;;4859257;29;20459;-76
2022/07/17 05:02:03;;;;;;;3.85;1.48;;;21.90;56.30;;;;;;4859223;29;20054;-76
2022/07/17 05:04:29;;;;;;;5.43;1.73;;;21.90;56.20;;;;;;4859470;29;20089;-76
2022/07/17 05:06:55;;;;;;;4.07;1.60;;;21.90;56.40;;;;;;4857730;29;20105;-76
2022/07/17 05:09:22;;;;;;;3.80;1.63;;;21.90;56.30;;;;;;4857953;29;20029;-76
2022/07/17 05:11:47;;;;;;;2.97;1.58;;;21.90;56.30;;;;;;4858706;29;20081;-76
2022/07/17 05:14:13;;;;;;;2.88;1.48;;;21.90;56.40;;;;;;4861535;29;20029;-76
2022/07/17 05:16:40;;;;;;;3.63;1.70;;;21.90;56.30;;;;;;4862191;29;20108;-76
2022/07/17 05:19:06;;;;;;;2.75;1.50;;;21.90;56.30;;;;;;4862685;29;20036;-76
2022/07/17 05:21:32;;;;;;;4.10;1.70;;;21.90;56.20;;;;;;4862408;29;20033;-76
2022/07/17 05:23:57;;;;;;;2.92;1.50;;;21.90;56.30;;;;;;4862584;29;20038;-76
2022/07/17 05:26:24;;;;;;;6.25;1.85;;;21.90;56.20;;;;;;4862118;29;20177;-76
2022/07/17 05:28:50;;;;;;;4.57;1.55;;;21.90;56.10;;;;;;4862417;29;20033;-76
2022/07/17 05:31:16;;;;;;;2.15;1.40;;;21.90;56.20;;;;;;4860870;29;20044;-76
2022/07/17 05:33:42;;;;;;;3.42;1.30;;;21.90;56.30;;;;;;4862366;29;20166;-76
2022/07/17 05:36:08;;;;;;;3.60;1.63;;;21.90;56.20;;;;;;4862059;29;20061;-76
2022/07/17 05:38:34;;;;;;;3.15;1.42;;;21.90;56.30;;;;;;4861018;29;20551;-76
2022/07/17 05:41:00;;;;;;;3.67;1.40;;;21.90;56.30;;;;;;4862325;29;20060;-76
2022/07/17 05:43:26;;;;;;;4.30;1.70;;;21.90;56.30;;;;;;4861186;29;20060;-76
2022/07/17 05:45:56;;;;;;;3.33;1.67;;;21.90;56.30;;;;;;4860669;29;20041;-76
2022/07/17 05:48:22;;;;;;;3.95;1.52;;;21.90;56.30;;;;;;4862037;29;20033;-76
2022/07/17 05:50:48;;;;;;;4.55;1.60;;;21.90;56.30;;;;;;4830054;29;20415;-76
2022/07/17 05:53:14;;;;;;;4.90;1.80;;;21.90;56.20;;;;;;4830292;29;20041;-76
2022/07/17 05:55:41;;;;;;;3.13;1.55;;;21.90;56.30;;;;;;4860419;29;20048;-76
2022/07/17 05:58:07;;;;;;;5.05;1.35;;;21.90;56.30;;;;;;4861906;29;20068;-76
2022/07/17 06:00:33;;;;;;;3.00;1.50;;;21.90;56.30;;;;;;4876105;29;20033;-76
2022/07/17 06:02:59;;;;;;;3.10;1.65;;;21.90;56.30;;;;;;4861800;29;20085;-76
2022/07/17 06:05:26;;;;;;;4.03;1.88;;;21.90;56.30;;;;;;4862028;29;20033;-76
2022/07/17 06:08:17;;;;;;;2.97;1.63;;;21.90;56.30;;;;;;4845316;29;20140;-75
2022/07/17 06:10:43;;;;;;;4.55;2.15;;;21.90;56.30;;;;;;4859877;29;20041;-75
2022/07/17 06:13:09;;;;;;;5.10;1.73;;;21.90;56.30;;;;;;4860558;29;20029;-76
2022/07/17 06:15:35;;;;;;;2.78;1.38;;;21.90;56.20;;;;;;4861296;29;20089;-76
2022/07/17 06:18:04;;;;;;;3.20;1.63;;;21.90;56.30;;;;;;4861581;29;20029;-77
2022/07/17 06:20:30;;;;;;;4.00;1.90;;;21.90;56.20;;;;;;4860212;29;20048;-77
2022/07/17 06:22:57;;;;;;;2.45;1.65;;;21.90;56.20;;;;;;4860710;29;20140;-75
2022/07/17 06:25:23;;;;;;;5.57;1.88;;;21.90;56.20;;;;;;4859712;29;20451;-76
2022/07/17 06:27:49;;;;;;;4.47;1.63;;;21.90;56.20;;;;;;4845071;29;20091;-75
2022/07/17 06:30:16;;;;;;;5.05;1.92;;;21.90;56.20;;;;;;4861163;29;20494;-75
2022/07/17 06:32:42;;;;;;;6.05;2.25;;;21.90;56.20;;;;;;4861315;29;20093;-75
2022/07/17 06:35:09;;;;;;;4.05;1.90;;;21.90;56.20;;;;;;4859788;29;20070;-75
2022/07/17 06:37:36;;;;;;;4.85;2.15;;;21.90;56.20;;;;;;4860086;29;20073;-75
2022/07/17 06:40:02;;;;;;;5.10;2.20;;;21.90;56.20;;;;;;4859980;29;20116;-75
2022/07/17 06:42:28;;;;;;;3.70;2.13;;;21.90;56.20;;;;;;4859978;29;20033;-75
2022/07/17 06:44:54;;;;;;;3.72;1.75;;;21.90;56.20;;;;;;4861011;29;20081;-75
2022/07/17 06:48:11;;;;;;;4.18;2.15;;;21.90;56.20;;;;;;4859749;29;20105;-75
2022/07/17 06:51:30;;;;;;;3.63;1.98;;;21.90;56.20;;;;;;4853547;29;20126;-75
2022/07/17 06:53:56;;;;;;;3.78;1.85;;;21.90;56.20;;;;;;4861019;29;20037;-75
2022/07/17 06:56:22;;;;;;;4.45;1.83;;;21.90;56.20;;;;;;4860614;29;20029;-75
2022/07/17 06:58:48;;;;;;;4.28;2.30;;;21.90;56.20;;;;;;4861480;29;20121;-76
2022/07/17 07:01:13;;;;;;;4.03;1.90;;;21.90;56.20;;;;;;4861252;29;20029;-75
2022/07/17 07:03:39;;;;;;;4.25;2.20;;;21.90;56.20;;;;;;4860860;29;20556;-75
2022/07/17 07:06:05;;;;;;;4.25;2.42;;;21.90;56.20;;;;;;4843889;29;20116;-75
2022/07/17 07:08:33;;;;;;;4.05;1.83;;;21.90;56.80;;;;;;4860746;29;20025;-75
2022/07/17 07:10:59;;;;;;;3.15;2.03;;;21.90;56.20;;;;;;4860522;29;20038;-76
2022/07/17 07:13:24;;;;;;;3.53;2.08;;;21.90;56.20;;;;;;4859836;29;20056;-75
2022/07/17 07:15:50;;;;;;;5.15;2.40;;;21.90;56.20;;;;;;4859241;29;20033;-76
2022/07/17 07:18:17;;;;;;;3.75;2.00;;;21.90;56.20;;;;;;4859359;29;20054;-75
2022/07/17 07:20:42;;;;;;;3.90;2.15;;;21.90;56.20;;;;;;4860876;29;20073;-75
2022/07/17 07:23:08;;;;;;;4.43;2.05;;;21.90;56.20;;;;;;4860560;29;20038;-75
2022/07/17 07:25:34;;;;;;;4.30;2.28;;;21.90;56.20;;;;;;4858907;29;20030;-76
2022/07/17 07:28:00;;;;;;;4.95;2.42;;;21.90;56.20;;;;;;4844015;29;20041;-75
2022/07/17 07:30:26;;;;;;;3.50;2.08;;;21.90;56.20;;;;;;4859998;29;20073;-76
2022/07/17 07:32:52;;;;;;;6.10;2.63;;;21.90;56.20;;;;;;4860257;29;20025;-75
2022/07/17 07:35:18;;;;;;;3.45;2.10;;;21.90;56.20;;;;;;4857952;29;20025;-75
2022/07/17 07:37:43;;;;;;;5.05;2.30;;;21.90;56.20;;;;;;4860147;29;20539;-76
2022/07/17 07:40:10;;;;;;;4.53;2.30;;;21.90;56.20;;;;;;4860247;29;20037;-75
2022/07/17 07:42:36;;;;;;;3.53;1.90;;;21.90;56.20;;;;;;4859025;29;20025;-76
2022/07/17 07:45:02;;;;;;;5.25;2.08;;;21.90;56.30;;;;;;4858779;29;20475;-75
2022/07/17 07:47:28;;;;;;;3.92;2.30;;;21.90;56.30;;;;;;4858843;29;20036;-75
2022/07/17 07:49:54;;;;;;;5.95;2.60;;;21.90;56.20;;;;;;4843385;29;20402;-76
2022/07/17 07:52:20;;;;;;;5.30;2.42;;;21.90;56.30;;;;;;4860022;29;20117;-75
2022/07/17 07:54:46;;;;;;;6.05;2.40;;;21.90;56.30;;;;;;4859978;29;20057;-75
2022/07/17 07:57:11;;;;;;;4.43;2.28;;;21.90;56.30;;;;;;4858413;29;20025;-75
2022/07/17 07:59:38;;;;;;;4.68;2.17;;;21.90;56.30;;;;;;4858615;29;20495;-75
2022/07/17 08:02:03;;;;;;;4.93;2.25;;;21.90;56.30;;;;;;4859828;29;20025;-75
2022/07/17 08:04:29;;;;;;;5.50;2.47;;;21.90;56.90;;;;;;4858824;29;20101;-75
2022/07/17 08:06:56;;;;;;;5.07;2.42;;;21.90;56.40;;;;;;4843054;29;20037;-75
2022/07/17 08:09:22;;;;;;;4.60;2.25;;;21.90;56.40;;;;;;4859635;29;20029;-76
2022/07/17 08:11:47;;;;;;;4.88;2.40;;;21.90;56.40;;;;;;4843013;29;20375;-75
2022/07/17 08:14:13;;;;;;;4.47;2.67;;;21.90;56.30;;;;;;4859735;29;20498;-75
2022/07/17 08:16:39;;;;;;;5.68;2.58;;;21.90;56.40;;;;;;4859486;29;20505;-75
2022/07/17 08:19:05;;;;;;;4.47;2.25;;;21.90;56.30;;;;;;4859586;29;20033;-75
2022/07/17 08:21:30;;;;;;;5.05;2.80;;;21.90;56.30;;;;;;4859561;29;20037;-76
2022/07/17 08:23:56;;;;;;;4.10;2.33;;;21.90;56.30;;;;;;4859673;29;20044;-75
2022/07/17 08:26:22;;;;;;;4.88;2.50;;;21.90;56.30;;;;;;4842934;29;20037;-75
2022/07/17 08:28:48;;;;;;;5.25;2.65;;;21.90;56.30;;;;;;4843211;29;20490;-77
2022/07/17 08:31:14;;;;;;;5.55;2.70;;;21.90;56.40;;;;;;4858984;29;20097;-78
2022/07/17 08:33:40;;;;;;;5.93;2.60;;;21.90;56.40;;;;;;4859539;29;20038;-77
2022/07/17 08:36:06;;;;;;;4.95;2.47;;;21.90;56.30;;;;;;4843566;29;20487;-77
2022/07/17 08:38:32;;;;;;;6.32;2.70;;;21.90;56.60;;;;;;4860916;29;20030;-76
2022/07/17 08:40:59;;;;;;;7.25;2.63;;;21.90;56.40;;;;;;4861087;29;20040;-78
2022/07/17 08:43:25;;;;;;;4.75;2.35;;;21.90;56.40;;;;;;4861776;29;20053;-79
2022/07/17 08:45:51;;;;;;;6.07;2.83;;;21.90;56.40;;;;;;4860469;29;20060;-78
2022/07/17 08:48:18;;;;;;;6.03;2.55;;;21.90;56.40;;;;;;4863827;29;20498;-78
2022/07/17 08:50:46;;;;;;;5.03;2.40;;;21.90;56.50;;;;;;4863475;29;20044;-79
2022/07/17 08:53:12;;;;;;;4.50;2.50;;;21.90;56.50;;;;;;4864802;29;20029;-79
2022/07/17 08:55:38;;;;;;;4.28;2.45;;;21.90;56.40;;;;;;4863013;29;20530;-78
2022/07/17 08:58:07;;;;;;;5.50;2.53;;;21.90;56.40;;;;;;4864553;29;20029;-78
2022/07/17 09:00:34;;;;;;;4.53;2.45;;;21.90;56.40;;;;;;4863790;29;20034;-78
2022/07/17 09:03:09;;;;;;;5.70;2.80;;;21.90;56.50;;;;;;4864508;29;20120;-78
2022/07/17 09:05:37;;;;;;;4.88;2.55;;;21.90;56.50;;;;;;4865248;29;20038;-78
2022/07/17 09:08:04;;;;;;;5.70;2.88;;;21.90;56.40;;;;;;4865455;29;20479;-77
2022/07/17 09:10:32;;;;;;;5.55;2.28;;;21.90;56.40;;;;;;4864000;29;20234;-78
2022/07/17 09:12:59;;;;;;;4.82;2.70;;;21.90;56.30;;;;;;4863083;29;20444;-77
2022/07/17 09:15:24;;;;;;;6.03;2.40;;;21.90;56.30;;;;;;4864705;29;20426;-76
2022/07/17 09:17:55;;;;;;;5.82;2.63;;;22.00;56.30;;;;;;4863690;29;20038;-78
2022/07/17 09:20:22;;;;;;;4.72;2.20;;;22.00;56.30;;;;;;4861739;29;20116;-78
2022/07/17 09:23:03;;;;;;;5.85;2.58;;;22.00;56.40;;;;;;4861430;29;20037;-77
2022/07/17 09:25:34;;;;;;;4.90;2.45;;;22.00;56.30;;;;;;4862256;29;20069;-76
2022/07/17 09:28:03;;;;;;;4.55;2.42;;;22.00;56.40;;;;;;4862408;29;20047;-76
2022/07/17 09:30:29;;;;;;;4.63;2.50;;;22.00;56.40;;;;;;4862251;29;20041;-76
2022/07/17 09:32:55;;;;;;;5.13;2.90;;;22.00;56.40;;;;;;4861233;29;20102;-75
2022/07/17 09:35:22;;;;;;;5.35;2.60;;;22.00;56.30;;;;;;4862222;29;20161;-77
2022/07/17 09:37:51;;;;;;;6.80;3.05;;;22.00;56.40;;;;;;4862422;29;20076;-77
2022/07/17 09:43:02;;;;;;;6.35;3.05;;;22.00;56.50;;;;;;4862179;29;20274;-78
2022/07/17 09:45:29;;;;;;;5.10;2.60;;;22.00;56.50;;;;;;4862005;29;20049;-77
2022/07/17 09:47:56;;;;;;;4.30;2.47;;;21.90;56.50;;;;;;4862054;29;20033;-76
2022/07/17 09:50:23;;;;;;;5.82;3.13;;;21.90;56.50;;;;;;4861936;29;20029;-77
2022/07/17 09:52:52;;;;;;;4.85;2.63;;;21.90;56.50;;;;;;4862299;29;20033;-77
2022/07/17 09:55:20;;;;;;;4.55;2.83;;;21.90;56.50;;;;;;4876925;29;20033;-76
2022/07/17 09:57:47;;;;;;;5.82;2.70;;;21.90;56.50;;;;;;4862588;29;20046;-77
2022/07/17 10:00:14;;;;;;;5.43;2.90;;;21.90;56.50;;;;;;4861836;29;20055;-79
2022/07/17 10:02:41;;;;;;;4.45;2.58;;;21.90;56.60;;;;;;4863227;29;20064;-75
2022/07/17 10:05:11;;;;;;;5.47;2.72;;;21.90;56.60;;;;;;4860793;29;20486;-78
2022/07/17 10:07:41;;;;;;;5.10;2.25;;;21.90;56.50;;;;;;4876777;29;20064;-77
2022/07/17 10:10:09;;;;;;;5.50;2.55;;;21.90;56.50;;;;;;4860597;29;20033;-77
2022/07/17 10:12:39;;;;;;;6.10;2.70;;;21.90;56.50;;;;;;4861869;29;20045;-78
2022/07/17 10:15:06;;;;;;;5.65;2.58;;;21.90;56.50;;;;;;4862459;29;20499;-78
2022/07/17 10:17:32;;;;;;;4.30;2.55;;;22.00;56.50;;;;;;4862294;29;20072;-77
2022/07/17 10:19:58;;;;;;;4.40;2.45;;;21.90;56.50;;;;;;4860256;29;20101;-77
2022/07/17 10:22:24;;;;;;;3.97;2.17;;;22.00;56.50;;;;;;4845526;29;20044;-77
2022/07/17 10:24:56;;;;;;;5.00;2.60;;;22.00;56.50;;;;;;4860459;29;20041;-78
2022/07/17 10:27:30;;;;;;;5.75;2.53;;;22.00;56.50;;;;;;4875930;29;20079;-77
2022/07/17 10:30:06;;;;;;;4.38;2.78;;;22.00;56.50;;;;;;4862131;29;20037;-78
2022/07/17 10:32:33;;;;;;;5.47;2.40;;;21.90;56.40;;;;;;4857522;24;20096;-79
2022/07/17 10:35:07;;;;;;;6.20;2.50;;;21.90;56.50;;;;;;4844667;29;20116;-78
2022/07/17 10:37:36;;;;;;;4.97;2.60;;;21.90;56.60;;;;;;4860191;29;20116;-78
2022/07/17 10:40:04;;;;;;;5.10;2.72;;;22.00;56.60;;;;;;4861281;29;20029;-78
2022/07/17 10:42:43;;;;;;;5.13;2.88;;;21.90;56.60;;;;;;4859985;29;20060;-78
2022/07/17 10:45:35;;;;;;;4.47;2.43;;;22.00;56.60;;;;;;4859710;29;20030;-79
2022/07/17 10:48:08;;;;;;;5.05;2.60;;;22.00;56.60;;;;;;4861130;29;20033;-77
2022/07/17 10:50:43;;;;;;;5.70;2.55;;;22.00;56.60;;;;;;4861051;29;20048;-77
2022/07/17 10:53:17;;;;;;;6.20;2.67;;;22.00;56.50;;;;;;4875516;29;20128;-77
2022/07/17 10:55:48;;;;;;;5.18;2.60;;;22.00;56.60;;;;;;4860644;29;20081;-78
2022/07/17 10:58:26;;;;;;;4.78;2.40;;;22.00;56.60;;;;;;4861090;29;20056;-76
2022/07/17 11:01:06;;;;;;;4.07;2.17;;;22.00;56.60;;;;;;4844215;29;20457;-75
2022/07/17 11:03:37;;;;;;;4.97;2.50;;;22.00;56.50;;;;;;4859673;29;20450;-75
2022/07/17 11:06:12;;;;;;;6.47;2.67;;;21.90;56.50;;;;;;4860551;29;20116;-77
2022/07/17 11:08:43;;;;;;;3.90;2.53;;;22.00;56.50;;;;;;4861300;29;20430;-77
2022/07/17 11:11:09;;;;;;;5.00;2.40;;;21.90;56.60;;;;;;4860454;29;20427;-77
2022/07/17 11:13:35;;;;;;;4.88;2.65;;;22.00;56.60;;;;;;4859407;29;20042;-77
2022/07/17 11:16:01;;;;;;;5.50;2.65;;;22.00;56.60;;;;;;4859005;29;20396;-77
2022/07/17 11:18:27;;;;;;;4.50;2.13;;;22.00;56.60;;;;;;4860651;29;20045;-77
2022/07/17 11:20:59;;;;;;;4.82;2.60;;;22.00;56.60;;;;;;4860692;29;20060;-77
2022/07/17 11:23:31;;;;;;;5.85;2.78;;;22.00;56.60;;;;;;4860502;29;20082;-77
2022/07/17 11:26:04;;;;;;;5.32;2.33;;;22.00;56.60;;;;;;4860180;29;20379;-78
2022/07/17 11:28:38;;;;;;;4.53;2.63;;;22.00;56.60;;;;;;4860441;29;20038;-77
2022/07/17 11:31:16;;;;;;;4.57;2.45;;;22.00;56.50;;;;;;4860100;29;20088;-76
2022/07/17 11:33:55;;;;;;;3.55;2.10;;;22.00;57.00;;;;;;4860289;29;20042;-78
2022/07/17 11:36:21;;;;;;;5.65;2.45;;;22.00;56.50;;;;;;4859996;29;20034;-77
2022/07/17 11:38:47;;;;;;;6.85;2.72;;;22.00;56.50;;;;;;4844297;29;20069;-78
2022/07/17 11:41:16;;;;;;;5.15;2.50;;;22.00;56.60;;;;;;4860273;29;20037;-77
2022/07/17 11:43:42;;;;;;;5.40;2.47;;;22.00;56.60;;;;;;4843673;29;20033;-77
2022/07/17 11:46:08;;;;;;;3.63;2.10;;;22.00;56.60;;;;;;4859837;29;20040;-77
2022/07/17 11:48:34;;;;;;;4.25;2.35;;;22.00;56.60;;;;;;4860065;29;20077;-77
2022/07/17 11:51:00;;;;;;;5.35;2.42;;;22.00;56.60;;;;;;4858679;29;20036;-77
2022/07/17 11:53:35;;;;;;;5.10;2.33;;;22.00;56.60;;;;;;4860016;29;20033;-77
2022/07/17 11:56:02;;;;;;;4.82;2.25;;;22.00;56.60;;;;;;4858555;29;20029;-77
2022/07/17 11:58:28;;;;;;;4.22;2.50;;;22.00;56.70;;;;;;4843684;29;20034;-77
2022/07/17 12:01:03;;;;;;;6.53;2.50;;;22.00;56.60;;;;;;4874081;29;20033;-77
2022/07/17 12:03:29;;;;;;;4.22;2.40;;;22.00;56.70;;;;;;4858843;29;20390;-77
2022/07/17 12:05:55;;;;;;;5.53;2.55;;;22.00;56.70;;;;;;4842972;29;20486;-77
2022/07/17 12:08:21;;;;;;;4.53;2.53;;;22.00;56.70;;;;;;4858601;29;20497;-77
2022/07/17 12:10:47;;;;;;;3.63;2.05;;;22.00;56.70;;;;;;4858408;29;20166;-77
2022/07/17 12:13:16;;;;;;;4.95;2.53;;;22.00;56.70;;;;;;4859684;29;20034;-77
2022/07/17 12:15:49;;;;;;;4.43;2.30;;;22.00;56.70;;;;;;4859484;29;20033;-77
2022/07/17 12:18:29;;;;;;;5.10;2.60;;;21.90;56.60;;;;;;4858682;29;20029;-77
2022/07/17 12:20:59;;;;;;;3.53;2.08;;;22.00;56.70;;;;;;4858601;29;20126;-77
2022/07/17 12:23:32;;;;;;;5.10;2.50;;;21.90;56.60;;;;;;4859408;29;20025;-77
2022/07/17 12:26:14;;;;;;;4.28;2.35;;;22.00;56.80;;;;;;4858299;29;20045;-77
2022/07/17 12:28:40;;;;;;;4.57;2.42;;;21.90;56.70;;;;;;4859670;29;20508;-77
2022/07/17 12:31:11;;;;;;;4.53;2.13;;;21.90;56.70;;;;;;4859316;29;20055;-77
2022/07/17 12:33:37;;;;;;;4.78;2.15;;;22.00;56.80;;;;;;4858611;29;20034;-77
2022/07/17 12:36:03;;;;;;;6.30;2.25;;;22.00;56.70;;;;;;4859247;29;20029;-77
2022/07/17 12:38:29;;;;;;;4.43;2.55;;;22.00;57.30;;;;;;4859474;29;20035;-77
2022/07/17 12:40:55;;;;;;;5.68;2.97;;;21.90;56.80;;;;;;4858503;29;20086;-77
2022/07/17 12:43:21;;;;;;;5.53;2.60;;;21.90;56.80;;;;;;4859553;29;20046;-77
2022/07/17 12:45:47;;;;;;;4.57;2.15;;;22.00;56.80;;;;;;4858293;29;20033;-77
2022/07/17 12:48:13;;;;;;;4.75;2.47;;;22.00;56.80;;;;;;4859311;29;20034;-77
2022/07/17 12:50:39;;;;;;;4.38;2.30;;;21.90;56.80;;;;;;4858174;29;20047;-77
2022/07/17 12:53:06;;;;;;;4.80;2.40;;;22.00;56.90;;;;;;4859396;29;20371;-77
2022/07/17 12:55:32;;;;;;;3.45;2.03;;;22.00;56.80;;;;;;4858055;29;20040;-77